Time;durP1;ratioP1;P1;durP2;ratioP2;P2;SDS_P1;SDS_P2;PMS_P1;PMS_P2;Temp;Humidity;BMP_temperature;BMP_pressure;BME280_temperature;BME280_humidity;BME280_pressure;Samples;Min_cycle;Max_cycle;Signal;HPM_P1;HPM_P2
2021/11/28 00:00:44;;;;;;;6.20;5.60;;;3.20;99.90;;;;;;6244018;23;20536;-89
2021/11/28 00:03:16;;;;;;;5.68;5.15;;;3.40;99.90;;;;;;6244358;23;20252;-89
2021/11/28 00:05:44;;;;;;;6.65;5.70;;;3.40;99.90;;;;;;6244353;23;20257;-89
2021/11/28 00:08:20;;;;;;;5.57;5.15;;;3.40;99.90;;;;;;6244086;23;20157;-87
2021/11/28 00:14:03;;;;;;;5.40;4.90;;;2.70;99.90;;;;;;6256567;22;20572;-90
2021/11/28 00:16:10;;;;;;;5.57;4.97;;;3.20;99.90;;;;;;6242353;23;20184;-89
2021/11/28 00:18:36;;;;;;;5.23;4.73;;;3.50;99.90;;;;;;6243093;23;20493;-89
2021/11/28 00:21:04;;;;;;;6.30;5.07;;;3.30;99.90;;;;;;6242582;23;20603;-89
2021/11/28 00:23:33;;;;;;;5.07;4.47;;;2.80;99.90;;;;;;6244032;23;20263;-89
2021/11/28 00:25:59;;;;;;;5.50;4.68;;;3.70;99.90;;;;;;6243643;23;20208;-88
2021/11/28 00:28:25;;;;;;;6.80;6.07;;;3.50;99.90;;;;;;6244184;23;20146;-89
2021/11/28 00:30:51;;;;;;;7.65;5.65;;;3.60;99.90;;;;;;6242549;23;20157;-89
2021/11/28 00:33:17;;;;;;;5.45;4.90;;;3.50;99.90;;;;;;6243094;23;20168;-89
2021/11/28 00:35:42;;;;;;;6.97;4.90;;;3.30;99.90;;;;;;6243787;23;20173;-89
2021/11/28 00:38:08;;;;;;;6.63;4.57;;;3.10;99.90;;;;;;6243057;23;20235;-89
2021/11/28 00:40:34;;;;;;;4.67;3.20;;;3.60;99.90;;;;;;6242893;23;20714;-88
2021/11/28 00:42:59;;;;;;;3.90;3.60;;;3.70;99.90;;;;;;6243968;23;20630;-89
2021/11/28 00:45:25;;;;;;;5.00;3.30;;;3.40;99.90;;;;;;6244106;23;20238;-88
2021/11/28 00:47:51;;;;;;;2.88;2.55;;;3.90;99.90;;;;;;6243405;23;20540;-90
2021/11/28 00:50:24;;;;;;;3.00;2.67;;;3.40;99.90;;;;;;6244505;23;20154;-88
2021/11/28 00:52:51;;;;;;;3.17;2.85;;;3.40;99.90;;;;;;6243879;23;20149;-89
2021/11/28 00:55:16;;;;;;;3.00;2.70;;;3.60;99.90;;;;;;6244104;23;20172;-88
2021/11/28 00:57:42;;;;;;;4.93;3.03;;;3.20;99.90;;;;;;6242442;23;20169;-89
2021/11/28 01:00:09;;;;;;;3.50;2.83;;;3.20;99.90;;;;;;6242700;23;20185;-88
2021/11/28 01:02:36;;;;;;;2.85;2.50;;;3.70;99.90;;;;;;6243625;23;20157;-88
2021/11/28 01:05:04;;;;;;;4.90;3.40;;;3.50;99.90;;;;;;6243426;23;20189;-88
2021/11/28 01:07:30;;;;;;;2.83;2.58;;;3.80;99.90;;;;;;6243208;23;20200;-88
2021/11/28 01:09:57;;;;;;;3.22;2.92;;;3.90;99.90;;;;;;6243334;23;20210;-89
2021/11/28 01:12:23;;;;;;;3.65;3.35;;;3.40;99.90;;;;;;6242613;23;20157;-89
2021/11/28 01:14:49;;;;;;;3.42;2.92;;;4.00;99.90;;;;;;6243687;23;20165;-89
2021/11/28 01:17:15;;;;;;;3.70;3.40;;;3.10;99.90;;;;;;6242644;23;20185;-89
2021/11/28 01:19:41;;;;;;;4.70;3.57;;;3.80;99.90;;;;;;6243024;23;20157;-89
2021/11/28 01:22:10;;;;;;;3.40;3.10;;;3.60;99.90;;;;;;6243125;23;20161;-88
2021/11/28 01:24:37;;;;;;;4.20;3.17;;;3.80;99.90;;;;;;6243362;23;20439;-89
2021/11/28 01:27:05;;;;;;;4.68;3.10;;;3.50;99.90;;;;;;6243273;23;20173;-89
2021/11/28 01:29:31;;;;;;;3.65;3.20;;;3.90;99.90;;;;;;6244176;23;20162;-88
2021/11/28 01:31:58;;;;;;;3.90;3.47;;;3.60;99.90;;;;;;6244043;23;20192;-89
2021/11/28 01:34:25;;;;;;;4.38;3.25;;;3.90;99.90;;;;;;6243842;23;20647;-89
2021/11/28 01:36:51;;;;;;;3.08;2.70;;;3.60;99.90;;;;;;6243223;23;20177;-89
2021/11/28 01:39:17;;;;;;;5.40;3.23;;;3.80;99.90;;;;;;6242379;23;20534;-89
2021/11/28 01:41:43;;;;;;;4.68;3.35;;;3.40;99.90;;;;;;6243033;23;20441;-89
2021/11/28 01:44:09;;;;;;;3.60;2.53;;;3.20;99.90;;;;;;6243290;23;20623;-89
2021/11/28 01:46:35;;;;;;;2.80;2.50;;;3.80;99.90;;;;;;6243173;23;20176;-89
2021/11/28 01:49:01;;;;;;;2.05;1.85;;;3.60;99.90;;;;;;6243552;23;20166;-88
2021/11/28 01:51:27;;;;;;;2.80;2.60;;;3.90;99.90;;;;;;6243788;23;20597;-89
2021/11/28 01:53:54;;;;;;;3.00;2.60;;;3.90;99.90;;;;;;6243433;23;20200;-89
2021/11/28 01:56:22;;;;;;;3.20;2.70;;;4.30;99.90;;;;;;6243146;23;20199;-88
2021/11/28 01:58:48;;;;;;;2.25;2.05;;;3.60;99.90;;;;;;6242913;23;20498;-88
2021/11/28 02:01:16;;;;;;;5.83;3.33;;;3.50;99.90;;;;;;6241755;23;20157;-89
2021/11/28 02:03:43;;;;;;;3.15;2.50;;;4.00;99.90;;;;;;6243303;23;20209;-89
2021/11/28 02:06:13;;;;;;;5.25;2.80;;;4.10;99.90;;;;;;6243879;23;20174;-89
2021/11/28 02:08:39;;;;;;;3.35;2.25;;;3.80;99.90;;;;;;6243773;23;20157;-89
2021/11/28 02:11:05;;;;;;;3.97;2.55;;;4.00;99.90;;;;;;6245196;23;20643;-89
2021/11/28 02:13:32;;;;;;;2.30;2.10;;;4.10;99.90;;;;;;6245688;23;20157;-88
2021/11/28 02:15:58;;;;;;;2.40;2.20;;;4.20;99.90;;;;;;6245439;23;20177;-89
2021/11/28 02:18:24;;;;;;;5.73;2.70;;;3.40;99.90;;;;;;6244905;23;20175;-89
2021/11/28 02:20:57;;;;;;;4.88;2.65;;;4.00;99.90;;;;;;6244901;23;20442;-89
2021/11/28 02:23:26;;;;;;;2.85;2.55;;;3.70;99.90;;;;;;6245240;23;20201;-89
2021/11/28 02:25:57;;;;;;;3.20;2.90;;;4.70;99.90;;;;;;6244949;23;20177;-89
2021/11/28 02:28:23;;;;;;;3.22;2.50;;;4.00;99.90;;;;;;6245528;23;20181;-89
2021/11/28 02:30:48;;;;;;;3.17;2.70;;;3.40;99.90;;;;;;6244283;23;20157;-89
2021/11/28 02:33:14;;;;;;;4.50;3.10;;;3.80;99.90;;;;;;6244664;23;20647;-89
2021/11/28 02:35:41;;;;;;;4.60;3.35;;;3.80;99.90;;;;;;6245213;23;20566;-89
2021/11/28 02:38:08;;;;;;;3.58;2.60;;;4.50;99.90;;;;;;6243732;23;20158;-89
2021/11/28 02:40:36;;;;;;;8.82;2.60;;;3.40;99.90;;;;;;6243575;23;20168;-89
2021/11/28 02:43:02;;;;;;;3.40;2.53;;;3.90;99.90;;;;;;6245070;23;20499;-88
2021/11/28 02:45:29;;;;;;;2.85;2.30;;;3.80;99.90;;;;;;6245129;23;20154;-89
2021/11/28 02:47:57;;;;;;;2.80;2.60;;;3.50;99.90;;;;;;6244386;23;20158;-89
2021/11/28 02:50:24;;;;;;;2.88;2.55;;;4.00;99.90;;;;;;6245487;23;20157;-89
2021/11/28 02:52:57;;;;;;;5.35;2.90;;;4.00;99.90;;;;;;6244748;23;20188;-90
2021/11/28 02:55:28;;;;;;;5.35;3.38;;;4.20;99.90;;;;;;6244832;23;20187;-89
2021/11/28 02:57:56;;;;;;;3.53;3.22;;;4.00;99.90;;;;;;6244114;23;20247;-90
2021/11/28 03:00:22;;;;;;;5.07;3.40;;;3.20;99.90;;;;;;6243993;23;20209;-90
2021/11/28 03:02:48;;;;;;;3.95;2.70;;;3.80;99.90;;;;;;6244787;23;20584;-89
2021/11/28 03:05:14;;;;;;;2.75;2.55;;;3.80;99.90;;;;;;6244591;23;20192;-90
2021/11/28 03:07:40;;;;;;;4.20;3.23;;;3.80;99.90;;;;;;6244959;23;20149;-89
2021/11/28 03:10:29;;;;;;;4.00;2.55;;;3.80;99.90;;;;;;6244043;23;20157;-88
2021/11/28 03:12:55;;;;;;;3.92;2.65;;;3.90;99.90;;;;;;6245121;23;20163;-88
2021/11/28 03:15:25;;;;;;;4.43;2.80;;;3.70;99.90;;;;;;6244569;23;20157;-89
2021/11/28 03:17:50;;;;;;;3.13;2.53;;;4.00;99.90;;;;;;6243570;23;20154;-89
2021/11/28 03:20:17;;;;;;;3.37;2.43;;;3.80;99.90;;;;;;6243679;23;20594;-89
2021/11/28 03:22:50;;;;;;;2.78;2.05;;;4.20;99.90;;;;;;6244552;23;20388;-89
2021/11/28 03:25:18;;;;;;;3.33;2.80;;;4.20;99.90;;;;;;6244718;23;20179;-89
2021/11/28 03:27:44;;;;;;;3.33;3.03;;;3.90;99.90;;;;;;6245124;23;20577;-89
2021/11/28 03:30:11;;;;;;;2.88;2.60;;;3.80;99.90;;;;;;6244449;23;20184;-89
2021/11/28 03:32:37;;;;;;;4.05;3.10;;;3.90;99.90;;;;;;6244457;23;20169;-89
2021/11/28 03:35:04;;;;;;;3.73;2.53;;;3.60;99.90;;;;;;6245185;23;20239;-89
2021/11/28 03:37:30;;;;;;;5.93;4.15;;;4.00;99.90;;;;;;6243596;23;20615;-89
2021/11/28 03:39:57;;;;;;;3.15;2.60;;;3.50;99.90;;;;;;6243374;23;20165;-89
2021/11/28 03:42:23;;;;;;;3.30;2.80;;;3.40;99.90;;;;;;6244679;23;20168;-90
2021/11/28 03:44:49;;;;;;;3.00;2.70;;;4.30;99.90;;;;;;6244681;23;20208;-89
2021/11/28 03:47:15;;;;;;;4.30;3.10;;;3.90;99.90;;;;;;6250165;23;20627;-88
2021/11/28 03:49:40;;;;;;;3.90;3.47;;;3.70;99.90;;;;;;6256507;23;20396;-89
2021/11/28 03:52:06;;;;;;;4.13;3.73;;;3.90;99.90;;;;;;6258943;23;20415;-88
2021/11/28 03:54:33;;;;;;;2.50;2.30;;;3.00;99.90;;;;;;6258075;23;20483;-88
2021/11/28 03:56:59;;;;;;;4.28;3.20;;;3.60;99.90;;;;;;6246843;23;20192;-89
2021/11/28 03:59:24;;;;;;;3.07;2.37;;;3.30;99.90;;;;;;6243899;23;20183;-89
2021/11/28 04:01:50;;;;;;;3.30;2.83;;;3.60;99.90;;;;;;6242480;23;20156;-89
2021/11/28 04:04:15;;;;;;;2.73;2.53;;;3.20;99.90;;;;;;6244650;23;20707;-89
2021/11/28 04:06:41;;;;;;;3.10;2.77;;;3.10;99.90;;;;;;6244385;23;20494;-89
2021/11/28 04:09:08;;;;;;;2.87;2.67;;;3.20;99.90;;;;;;6244002;23;20163;-89
2021/11/28 04:11:33;;;;;;;2.83;2.50;;;3.60;99.90;;;;;;6242818;23;20438;-89
2021/11/28 04:13:59;;;;;;;3.30;2.83;;;3.70;99.90;;;;;;6243906;23;20571;-89
2021/11/28 04:16:25;;;;;;;4.03;3.10;;;3.80;99.90;;;;;;6244165;23;20505;-89
2021/11/28 04:18:50;;;;;;;7.40;3.00;;;3.90;99.90;;;;;;6242240;23;20164;-89
2021/11/28 04:21:16;;;;;;;3.13;2.60;;;3.50;99.90;;;;;;6244082;23;20599;-89
2021/11/28 04:23:42;;;;;;;3.00;2.80;;;3.70;99.90;;;;;;6244494;23;20230;-88
2021/11/28 04:26:10;;;;;;;3.00;2.50;;;3.80;99.90;;;;;;6243797;23;20412;-89
2021/11/28 04:28:36;;;;;;;4.00;2.75;;;3.20;99.90;;;;;;6244697;23;20157;-88
2021/11/28 04:31:02;;;;;;;5.33;3.03;;;3.40;99.90;;;;;;6244073;23;20149;-89
2021/11/28 04:33:27;;;;;;;3.93;2.80;;;3.80;99.90;;;;;;6243908;23;20211;-89
2021/11/28 04:35:53;;;;;;;4.50;2.60;;;3.60;99.90;;;;;;6243622;23;20185;-89
2021/11/28 04:38:19;;;;;;;3.63;2.80;;;3.50;99.90;;;;;;6242969;23;20561;-89
2021/11/28 04:40:44;;;;;;;3.57;2.60;;;3.70;99.90;;;;;;6242962;23;20477;-89
2021/11/28 04:43:10;;;;;;;4.80;2.63;;;3.20;99.90;;;;;;6243700;23;20160;-89
2021/11/28 04:45:36;;;;;;;3.47;2.50;;;3.10;99.90;;;;;;6244053;23;20169;-89
2021/11/28 04:48:02;;;;;;;3.10;2.50;;;2.90;99.90;;;;;;6243134;23;20153;-90
2021/11/28 04:50:27;;;;;;;3.27;2.97;;;3.60;99.90;;;;;;6243887;23;20395;-89
2021/11/28 04:52:53;;;;;;;2.50;2.30;;;3.90;99.90;;;;;;6243735;23;20862;-89
2021/11/28 04:55:19;;;;;;;3.33;3.03;;;3.50;99.90;;;;;;6243415;23;20169;-89
2021/11/28 04:57:44;;;;;;;4.47;2.60;;;3.20;99.90;;;;;;6243475;23;20176;-89
2021/11/28 05:00:16;;;;;;;3.50;2.90;;;3.20;99.90;;;;;;6243077;23;20160;-89
2021/11/28 05:02:42;;;;;;;4.43;3.65;;;3.80;99.90;;;;;;6243223;23;20384;-89
2021/11/28 05:05:08;;;;;;;4.93;3.07;;;3.20;99.90;;;;;;6243359;23;20185;-89
2021/11/28 05:07:33;;;;;;;3.38;3.08;;;3.80;99.90;;;;;;6243682;23;20172;-88
2021/11/28 05:10:00;;;;;;;4.83;3.07;;;3.60;99.90;;;;;;6243360;23;20167;-88
2021/11/28 05:12:25;;;;;;;3.92;2.53;;;3.70;99.90;;;;;;6243155;23;20227;-89
2021/11/28 05:14:54;;;;;;;2.60;2.40;;;3.60;99.90;;;;;;6245225;23;20161;-89
2021/11/28 05:17:20;;;;;;;5.78;2.90;;;3.60;99.90;;;;;;6244883;23;20177;-88
2021/11/28 05:19:46;;;;;;;2.70;2.50;;;3.20;99.90;;;;;;6242896;23;20165;-88
2021/11/28 05:22:12;;;;;;;4.67;2.73;;;2.80;99.90;;;;;;6241998;23;20165;-88
2021/11/28 05:24:37;;;;;;;2.90;2.37;;;3.50;99.90;;;;;;6243038;23;20192;-89
2021/11/28 05:27:03;;;;;;;4.53;2.60;;;3.30;99.90;;;;;;6242719;23;20917;-88
2021/11/28 05:29:30;;;;;;;2.80;2.60;;;3.90;99.90;;;;;;6243294;23;20391;-90
2021/11/28 05:31:56;;;;;;;4.10;2.85;;;4.00;99.90;;;;;;6243673;23;20215;-90
2021/11/28 05:34:22;;;;;;;3.80;2.33;;;3.60;99.90;;;;;;6243411;23;20161;-90
2021/11/28 05:36:48;;;;;;;2.80;2.08;;;3.30;99.90;;;;;;6243838;23;20869;-90
2021/11/28 05:39:13;;;;;;;4.53;2.60;;;3.60;99.90;;;;;;6243755;23;20196;-90
2021/11/28 05:41:46;;;;;;;2.23;2.00;;;3.40;99.90;;;;;;6249308;23;20157;-92
2021/11/28 05:45:10;;;;;;;2.10;1.85;;;3.20;99.90;;;;;;6246535;23;20187;-92
2021/11/28 05:47:36;;;;;;;3.80;2.38;;;4.20;99.90;;;;;;6102110;23;20182;-90
2021/11/28 05:50:05;;;;;;;2.77;1.90;;;3.20;99.90;;;;;;6100550;23;20175;-91
2021/11/28 05:52:30;;;;;;;2.30;2.10;;;3.70;99.90;;;;;;6189699;23;20249;-90
2021/11/28 05:54:58;;;;;;;5.23;2.33;;;3.80;99.90;;;;;;6246161;23;20191;-90
2021/11/28 05:57:24;;;;;;;2.60;2.38;;;4.20;99.90;;;;;;6245229;23;20193;-91
2021/11/28 06:00:08;;;;;;;2.53;2.33;;;3.70;99.90;;;;;;6246698;23;20742;-91
2021/11/28 06:02:34;;;;;;;2.90;2.20;;;3.90;99.90;;;;;;6245614;23;20558;-91
2021/11/28 06:05:00;;;;;;;2.25;1.90;;;3.90;99.90;;;;;;6246212;23;20698;-88
2021/11/28 06:07:26;;;;;;;3.80;2.53;;;3.90;99.90;;;;;;6244481;23;20215;-88
2021/11/28 06:09:51;;;;;;;3.30;3.00;;;3.30;99.90;;;;;;6244563;23;20149;-90
2021/11/28 06:15:39;;;;;;;4.85;2.55;;;4.00;99.90;;;;;;6255660;22;20692;-53
2021/11/28 06:18:04;;;;;;;2.63;2.43;;;3.90;99.90;;;;;;6254580;23;20145;-53
2021/11/28 06:20:30;;;;;;;2.30;2.03;;;4.40;99.90;;;;;;6252295;23;20214;-54
2021/11/28 06:22:56;;;;;;;3.03;2.07;;;3.80;99.90;;;;;;6254199;22;20216;-54
2021/11/28 06:25:22;;;;;;;3.70;2.57;;;4.30;99.90;;;;;;6253484;23;20848;-52
2021/11/28 06:27:47;;;;;;;2.60;2.10;;;3.20;99.90;;;;;;6253776;23;20398;-52
2021/11/28 06:30:13;;;;;;;2.90;2.33;;;3.80;99.90;;;;;;6253526;23;20505;-52
2021/11/28 06:32:39;;;;;;;2.20;2.00;;;3.90;99.90;;;;;;6252662;22;20489;-53
2021/11/28 06:35:06;;;;;;;2.50;2.30;;;3.80;99.90;;;;;;6254369;23;20454;-53
2021/11/28 06:37:32;;;;;;;3.85;2.33;;;3.80;99.90;;;;;;6243658;22;20177;-53
2021/11/28 06:39:57;;;;;;;2.70;2.50;;;4.00;99.90;;;;;;6253539;23;20168;-54
2021/11/28 06:42:23;;;;;;;4.80;2.43;;;3.90;99.90;;;;;;6252401;22;20384;-54
2021/11/28 06:44:48;;;;;;;3.23;2.53;;;3.80;99.90;;;;;;6253678;23;20173;-53
2021/11/28 06:47:14;;;;;;;2.60;2.33;;;4.00;99.90;;;;;;6253842;23;20279;-52
2021/11/28 06:49:41;;;;;;;3.40;2.47;;;4.00;99.90;;;;;;6252773;22;20145;-53
2021/11/28 06:52:07;;;;;;;3.15;2.75;;;3.80;99.90;;;;;;6253338;22;20596;-54
2021/11/28 06:54:32;;;;;;;2.30;1.93;;;3.60;99.90;;;;;;6241757;23;20157;-55
2021/11/28 06:56:58;;;;;;;2.30;2.10;;;3.60;99.90;;;;;;6252740;23;20608;-55
2021/11/28 06:59:26;;;;;;;2.42;2.20;;;3.80;99.90;;;;;;6243154;22;20161;-53
2021/11/28 07:01:52;;;;;;;4.45;2.70;;;3.80;99.90;;;;;;6252465;22;20192;-54
2021/11/28 07:04:18;;;;;;;3.70;2.30;;;3.80;99.90;;;;;;6243216;23;20635;-53
2021/11/28 07:06:44;;;;;;;2.40;2.20;;;3.60;99.90;;;;;;6253652;22;20395;-56
2021/11/28 07:09:09;;;;;;;2.42;2.25;;;3.90;99.90;;;;;;6252369;23;20153;-53
2021/11/28 07:11:35;;;;;;;2.83;2.57;;;3.10;99.90;;;;;;6252136;23;20662;-55
2021/11/28 07:14:01;;;;;;;3.17;2.53;;;3.20;99.90;;;;;;6243327;23;20233;-52
2021/11/28 07:16:27;;;;;;;5.60;3.75;;;3.80;99.90;;;;;;6253778;22;20329;-53
2021/11/28 07:18:53;;;;;;;2.90;2.70;;;3.90;99.90;;;;;;6253068;22;20184;-52
2021/11/28 07:21:19;;;;;;;3.50;2.23;;;3.70;99.90;;;;;;6251033;22;20177;-53
2021/11/28 07:23:46;;;;;;;4.97;2.60;;;4.00;99.90;;;;;;6242881;22;20185;-55
2021/11/28 07:26:13;;;;;;;3.38;2.60;;;4.10;99.90;;;;;;6253291;22;20641;-55
2021/11/28 07:28:39;;;;;;;3.10;2.80;;;3.90;99.90;;;;;;6252567;22;20156;-54
2021/11/28 07:31:06;;;;;;;3.53;3.17;;;3.90;99.90;;;;;;6253520;23;20162;-54
2021/11/28 07:33:36;;;;;;;3.72;2.92;;;3.70;99.90;;;;;;6253313;22;20159;-54
2021/11/28 07:36:05;;;;;;;6.00;3.75;;;3.90;99.90;;;;;;6252196;22;20161;-53
2021/11/28 07:38:31;;;;;;;4.18;2.58;;;3.80;99.90;;;;;;6252102;22;20181;-54
2021/11/28 07:40:57;;;;;;;3.30;2.63;;;3.80;99.90;;;;;;6242523;23;20336;-53
2021/11/28 07:43:23;;;;;;;3.50;2.65;;;3.90;99.90;;;;;;6253133;22;20438;-55
2021/11/28 07:45:49;;;;;;;5.23;3.20;;;3.80;99.90;;;;;;6254062;22;20604;-54
2021/11/28 07:48:14;;;;;;;3.23;2.93;;;3.40;99.90;;;;;;6242096;23;20164;-55
2021/11/28 07:50:40;;;;;;;4.27;3.17;;;3.70;99.90;;;;;;6253005;22;20173;-54
2021/11/28 07:53:06;;;;;;;3.42;3.00;;;4.00;99.90;;;;;;6241640;23;20701;-55
2021/11/28 07:55:32;;;;;;;3.50;2.87;;;4.00;99.90;;;;;;6242379;23;20153;-55
2021/11/28 07:57:59;;;;;;;4.87;3.40;;;4.10;99.90;;;;;;6252555;23;20150;-54
2021/11/28 08:00:25;;;;;;;4.28;2.60;;;4.00;99.90;;;;;;6253309;23;20169;-54
2021/11/28 08:02:51;;;;;;;4.05;2.95;;;3.70;99.90;;;;;;6252589;22;20149;-55
2021/11/28 08:05:17;;;;;;;3.40;3.10;;;3.90;99.90;;;;;;6252405;23;20299;-54
2021/11/28 08:07:43;;;;;;;3.33;2.95;;;4.00;99.90;;;;;;6241714;22;20177;-55
2021/11/28 08:10:09;;;;;;;3.70;3.40;;;4.10;99.90;;;;;;6252157;23;20242;-54
2021/11/28 08:12:34;;;;;;;3.00;2.72;;;4.50;99.90;;;;;;6252820;22;20461;-54
2021/11/28 08:15:01;;;;;;;4.90;2.87;;;4.10;99.90;;;;;;6242396;22;20223;-54
2021/11/28 08:17:27;;;;;;;3.70;2.78;;;4.00;99.90;;;;;;6252383;22;20878;-54
2021/11/28 08:19:53;;;;;;;4.17;3.10;;;4.20;99.90;;;;;;6252087;22;20158;-54
2021/11/28 08:22:19;;;;;;;4.43;3.10;;;3.90;99.90;;;;;;6253343;23;20384;-54
2021/11/28 08:24:45;;;;;;;5.17;3.80;;;4.30;99.90;;;;;;6252567;22;20474;-54
2021/11/28 08:27:11;;;;;;;3.85;3.33;;;4.30;99.90;;;;;;6252932;22;20724;-54
2021/11/28 08:29:37;;;;;;;3.53;3.20;;;4.10;99.90;;;;;;6240859;23;20157;-54
2021/11/28 08:32:03;;;;;;;4.30;3.63;;;4.20;99.90;;;;;;6252595;22;20759;-54
2021/11/28 08:34:29;;;;;;;3.58;3.28;;;4.10;99.90;;;;;;6240801;23;20863;-55
2021/11/28 08:36:55;;;;;;;2.97;2.63;;;4.40;99.90;;;;;;6251342;23;20164;-54
2021/11/28 08:39:20;;;;;;;5.27;3.30;;;4.50;99.90;;;;;;6251774;22;20156;-54
2021/11/28 08:41:46;;;;;;;4.40;3.17;;;4.20;99.90;;;;;;6252976;23;20901;-54
2021/11/28 08:44:12;;;;;;;3.20;2.80;;;4.50;99.90;;;;;;6252148;23;20177;-55
2021/11/28 08:46:38;;;;;;;3.20;2.80;;;4.50;99.90;;;;;;6242477;23;20601;-54
2021/11/28 08:49:04;;;;;;;4.53;3.47;;;4.50;99.90;;;;;;6251632;23;20414;-55
2021/11/28 08:51:30;;;;;;;3.73;3.40;;;4.40;99.90;;;;;;6252460;22;20240;-55
2021/11/28 08:53:58;;;;;;;4.15;3.38;;;4.00;99.90;;;;;;6251952;23;20407;-55
2021/11/28 08:56:25;;;;;;;4.15;3.40;;;4.70;99.90;;;;;;6252098;22;20156;-54
2021/11/28 08:58:51;;;;;;;3.20;2.90;;;4.50;99.90;;;;;;6252193;22;20149;-53
2021/11/28 09:01:17;;;;;;;3.50;3.20;;;4.70;99.90;;;;;;6242299;22;20317;-54
2021/11/28 09:03:44;;;;;;;3.70;3.40;;;4.60;99.90;;;;;;6241881;22;20180;-54
2021/11/28 09:06:12;;;;;;;4.50;3.38;;;4.10;99.90;;;;;;6252359;22;20141;-54
2021/11/28 09:08:38;;;;;;;3.05;2.85;;;4.80;99.90;;;;;;6252259;22;20588;-55
2021/11/28 09:11:05;;;;;;;3.90;3.50;;;4.70;99.90;;;;;;6252304;22;20173;-54
2021/11/28 09:13:33;;;;;;;3.58;3.28;;;4.80;99.90;;;;;;6252495;23;20471;-59
2021/11/28 09:15:59;;;;;;;3.00;2.80;;;5.00;99.90;;;;;;6242136;22;20187;-57
2021/11/28 09:18:35;;;;;;;3.90;3.50;;;5.10;99.90;;;;;;6251587;22;20156;-55
2021/11/28 09:21:01;;;;;;;5.55;2.90;;;5.00;99.90;;;;;;6252498;22;20173;-54
2021/11/28 09:26:13;;;;;;;3.50;3.17;;;5.10;99.90;;;;;;6250923;23;20142;-54
2021/11/28 09:28:40;;;;;;;3.53;3.22;;;5.00;99.90;;;;;;6252030;22;20172;-54
2021/11/28 09:31:09;;;;;;;5.38;3.97;;;5.20;99.90;;;;;;6251211;22;20165;-54
2021/11/28 09:33:36;;;;;;;4.30;3.05;;;4.80;99.90;;;;;;6249986;22;20165;-54
2021/11/28 09:36:01;;;;;;;3.78;3.10;;;5.00;99.90;;;;;;6251276;22;20150;-55
2021/11/28 09:38:27;;;;;;;4.03;3.23;;;5.10;99.90;;;;;;6251337;23;20165;-54
2021/11/28 09:40:56;;;;;;;4.33;3.47;;;4.80;99.90;;;;;;6251941;23;20180;-53
2021/11/28 09:43:23;;;;;;;5.68;3.22;;;4.40;99.90;;;;;;6241060;22;20422;-54
2021/11/28 09:45:49;;;;;;;3.78;3.00;;;4.90;99.90;;;;;;6251201;22;20201;-54
2021/11/28 09:48:16;;;;;;;4.63;3.72;;;5.10;99.90;;;;;;6250322;22;20147;-54
2021/11/28 09:50:42;;;;;;;3.25;2.95;;;4.60;99.90;;;;;;6239229;23;20308;-54
2021/11/28 09:53:12;;;;;;;5.07;3.63;;;5.30;99.90;;;;;;6252210;23;20217;-55
2021/11/28 09:55:38;;;;;;;5.10;3.65;;;4.60;99.90;;;;;;6252124;22;20145;-55
2021/11/28 09:58:06;;;;;;;3.13;2.75;;;5.20;99.90;;;;;;6241195;22;20155;-55
2021/11/28 10:00:32;;;;;;;4.53;2.78;;;5.10;99.90;;;;;;6252271;22;20224;-54
2021/11/28 10:02:58;;;;;;;3.50;3.20;;;5.60;99.90;;;;;;6251406;22;20163;-54
2021/11/28 10:05:23;;;;;;;4.83;3.30;;;5.70;99.90;;;;;;6251761;23;20178;-53
2021/11/28 10:07:51;;;;;;;3.07;2.77;;;6.00;99.90;;;;;;6239819;23;20480;-54
2021/11/28 10:10:19;;;;;;;3.15;2.85;;;6.00;99.90;;;;;;6251822;23;20168;-54
2021/11/28 10:12:48;;;;;;;3.38;3.08;;;5.80;99.90;;;;;;6252115;22;20227;-54
2021/11/28 10:15:27;;;;;;;2.47;2.28;;;5.80;99.90;;;;;;6241377;22;20160;-54
2021/11/28 10:17:53;;;;;;;3.35;3.05;;;5.90;99.90;;;;;;6251640;22;20207;-54
2021/11/28 10:20:21;;;;;;;3.20;2.70;;;6.00;99.90;;;;;;6252325;23;20622;-55
2021/11/28 10:22:48;;;;;;;3.38;2.95;;;5.70;99.90;;;;;;6252319;22;20155;-55
2021/11/28 10:25:26;;;;;;;3.47;3.10;;;5.80;99.90;;;;;;6251785;23;20237;-55
2021/11/28 10:27:55;;;;;;;3.60;2.90;;;5.60;99.90;;;;;;6241340;22;20151;-54
2021/11/28 10:30:26;;;;;;;3.33;2.95;;;5.20;99.90;;;;;;6252060;22;20171;-54
2021/11/28 10:32:52;;;;;;;3.58;3.25;;;6.00;99.90;;;;;;6252867;23;20626;-54
2021/11/28 10:35:19;;;;;;;3.97;3.10;;;5.50;99.90;;;;;;6254253;22;20156;-54
2021/11/28 10:37:51;;;;;;;4.57;3.35;;;5.50;99.90;;;;;;6242837;22;20438;-54
2021/11/28 10:40:24;;;;;;;3.88;3.05;;;5.60;99.90;;;;;;6253605;22;20202;-53
2021/11/28 10:43:05;;;;;;;5.43;3.47;;;5.70;99.90;;;;;;6253950;22;20594;-54
2021/11/28 10:45:38;;;;;;;3.70;3.40;;;5.80;99.90;;;;;;6253608;22;20135;-55
2021/11/28 10:48:06;;;;;;;4.78;3.20;;;5.50;99.90;;;;;;6242677;22;20406;-54
2021/11/28 10:50:33;;;;;;;3.25;2.85;;;5.70;99.90;;;;;;6253836;22;20492;-54
2021/11/28 10:53:20;;;;;;;3.40;2.97;;;5.70;99.90;;;;;;6253612;22;20155;-54
2021/11/28 10:55:46;;;;;;;3.03;2.70;;;6.00;99.90;;;;;;6253379;22;20492;-55
2021/11/28 10:58:12;;;;;;;3.17;2.47;;;6.00;99.90;;;;;;6241958;23;20160;-54
2021/11/28 11:00:50;;;;;;;2.73;2.40;;;6.10;99.90;;;;;;6241280;23;20183;-54
2021/11/28 11:03:21;;;;;;;3.10;2.80;;;6.10;99.90;;;;;;6253380;23;20152;-54
2021/11/28 11:05:52;;;;;;;3.00;2.80;;;5.60;99.90;;;;;;6253543;22;20489;-54
2021/11/28 11:08:24;;;;;;;3.80;3.28;;;5.50;99.90;;;;;;6253594;22;20151;-54
2021/11/28 11:11:09;;;;;;;2.05;1.95;;;6.10;99.90;;;;;;6253256;22;20177;-54
2021/11/28 11:13:53;;;;;;;2.20;2.00;;;6.00;99.90;;;;;;6253185;22;20539;-55
2021/11/28 11:16:35;;;;;;;1.75;1.65;;;5.40;99.90;;;;;;6253740;22;20582;-53
2021/11/28 11:19:24;;;;;;;2.30;2.10;;;6.00;99.90;;;;;;6242413;22;20492;-55
2021/11/28 11:22:03;;;;;;;1.92;1.65;;;5.80;99.90;;;;;;6241558;23;20178;-55
2021/11/28 11:24:29;;;;;;;2.38;2.17;;;5.70;99.90;;;;;;6253149;22;20214;-55
2021/11/28 11:27:08;;;;;;;2.57;2.37;;;5.70;99.90;;;;;;6252749;23;20155;-55
2021/11/28 11:29:34;;;;;;;2.10;1.75;;;5.90;99.90;;;;;;6253232;22;20134;-55
2021/11/28 11:32:02;;;;;;;2.13;1.77;;;5.80;99.90;;;;;;6253213;22;20175;-55
2021/11/28 11:34:30;;;;;;;3.00;2.40;;;5.70;99.90;;;;;;6253522;22;20386;-54
2021/11/28 11:36:59;;;;;;;2.40;1.85;;;5.60;99.90;;;;;;6240299;23;20155;-54
2021/11/28 11:39:28;;;;;;;2.45;2.05;;;5.50;99.90;;;;;;6253102;22;20606;-54
2021/11/28 11:41:55;;;;;;;1.60;1.50;;;5.60;99.90;;;;;;6241279;23;20208;-54
2021/11/28 11:44:24;;;;;;;2.38;2.17;;;5.40;99.90;;;;;;6253385;22;20253;-54
2021/11/28 11:46:51;;;;;;;1.98;1.77;;;5.80;99.90;;;;;;6252354;22;20155;-54
2021/11/28 11:49:17;;;;;;;2.22;2.00;;;5.60;99.90;;;;;;6253105;22;20148;-54
2021/11/28 11:51:43;;;;;;;2.63;1.77;;;5.70;99.90;;;;;;6253417;23;20175;-54
2021/11/28 11:54:27;;;;;;;2.47;1.50;;;5.70;99.90;;;;;;6252956;22;20780;-55
2021/11/28 11:57:14;;;;;;;3.08;1.58;;;5.50;99.90;;;;;;6252782;22;20216;-55
2021/11/28 12:00:05;;;;;;;3.25;2.95;;;6.00;99.90;;;;;;6253094;22;20143;-54
2021/11/28 12:02:42;;;;;;;2.75;1.33;;;5.80;99.80;;;;;;6252839;23;20625;-54
2021/11/28 12:05:23;;;;;;;3.28;1.92;;;6.00;99.90;;;;;;6250425;22;20679;-55
2021/11/28 12:08:13;;;;;;;2.08;1.88;;;6.40;99.60;;;;;;6252829;22;20145;-54
2021/11/28 12:10:58;;;;;;;2.50;1.80;;;6.40;99.40;;;;;;6242833;23;20176;-55
2021/11/28 12:13:23;;;;;;;2.10;1.90;;;6.60;99.20;;;;;;6242121;22;20186;-54
2021/11/28 12:15:49;;;;;;;1.90;1.80;;;6.30;98.90;;;;;;6240746;23;20164;-54
2021/11/28 12:18:33;;;;;;;3.10;2.40;;;5.90;99.30;;;;;;6251631;22;20135;-54
2021/11/28 12:21:12;;;;;;;2.50;1.92;;;5.90;99.60;;;;;;6242309;22;20180;-55
2021/11/28 12:24:11;;;;;;;3.58;2.42;;;5.80;99.90;;;;;;6252357;23;20171;-55
2021/11/28 12:26:40;;;;;;;4.22;3.83;;;5.90;99.90;;;;;;6240698;23;20148;-55
2021/11/28 12:29:08;;;;;;;6.72;3.50;;;6.30;99.90;;;;;;6252527;22;20152;-55
2021/11/28 12:31:38;;;;;;;4.65;4.25;;;6.40;99.90;;;;;;6251964;22;20172;-53
2021/11/28 12:34:05;;;;;;;4.53;4.10;;;6.60;99.90;;;;;;6252555;22;20152;-55
2021/11/28 12:36:34;;;;;;;5.10;4.60;;;6.40;99.90;;;;;;6240692;23;20603;-54
2021/11/28 12:39:07;;;;;;;5.57;4.28;;;6.50;99.90;;;;;;6252361;22;20153;-53
2021/11/28 12:41:55;;;;;;;4.63;3.85;;;6.30;99.90;;;;;;6252677;23;20175;-54
2021/11/28 12:44:46;;;;;;;5.05;3.75;;;6.20;99.90;;;;;;6252614;22;20169;-54
2021/11/28 12:47:12;;;;;;;7.45;4.68;;;6.50;99.90;;;;;;6240445;22;20149;-54
2021/11/28 12:49:44;;;;;;;6.07;4.70;;;6.50;99.90;;;;;;6251815;23;20158;-54
2021/11/28 12:52:25;;;;;;;7.80;5.88;;;6.40;99.90;;;;;;6252858;22;20671;-54
2021/11/28 12:55:03;;;;;;;6.15;5.55;;;6.30;99.90;;;;;;6240560;23;20248;-53
2021/11/28 12:58:03;;;;;;;5.93;4.65;;;6.20;99.90;;;;;;6252172;22;20494;-54
2021/11/28 13:00:31;;;;;;;5.65;4.78;;;6.50;99.90;;;;;;6252604;22;20693;-54
2021/11/28 13:03:08;;;;;;;6.82;5.05;;;6.10;99.90;;;;;;6252693;22;20508;-54
2021/11/28 13:05:35;;;;;;;5.22;4.50;;;6.10;99.90;;;;;;6252628;22;20207;-53
2021/11/28 13:08:01;;;;;;;6.50;4.45;;;6.30;99.90;;;;;;6252218;22;20527;-54
2021/11/28 13:10:28;;;;;;;6.53;5.20;;;6.10;99.90;;;;;;6242154;23;20244;-54
2021/11/28 13:12:56;;;;;;;6.88;5.55;;;5.50;99.90;;;;;;6252098;22;20178;-54